sensor_id;sensor_type;location;lat;lon;timestamp;P1;durP1;ratioP1;P2;durP2;ratioP2
30215;SDS011;17028;47.642;8.070;2022-10-19T00:03:51;6.28;;;2.58;;
30215;SDS011;17028;47.642;8.070;2022-10-19T00:08:55;5.05;;;2.55;;
30215;SDS011;17028;47.642;8.070;2022-10-19T00:14:00;3.67;;;2.45;;
30215;SDS011;17028;47.642;8.070;2022-10-19T00:19:03;6.43;;;3.08;;
30215;SDS011;17028;47.642;8.070;2022-10-19T00:24:08;4.75;;;2.72;;
30215;SDS011;17028;47.642;8.070;2022-10-19T00:29:09;6.53;;;3.00;;
30215;SDS011;17028;47.642;8.070;2022-10-19T00:34:13;5.78;;;3.20;;
30215;SDS011;17028;47.642;8.070;2022-10-19T00:39:14;6.15;;;3.40;;
30215;SDS011;17028;47.642;8.070;2022-10-19T00:49:21;6.80;;;3.05;;
30215;SDS011;17028;47.642;8.070;2022-10-19T00:54:24;5.38;;;3.30;;
30215;SDS011;17028;47.642;8.070;2022-10-19T00:59:25;6.70;;;3.88;;
30215;SDS011;17028;47.642;8.070;2022-10-19T01:04:31;5.60;;;3.33;;
30215;SDS011;17028;47.642;8.070;2022-10-19T01:09:35;6.28;;;3.22;;
30215;SDS011;17028;47.642;8.070;2022-10-19T01:31:23;5.57;;;3.80;;
30215;SDS011;17028;47.642;8.070;2022-10-19T01:41:49;7.18;;;4.53;;
30215;SDS011;17028;47.642;8.070;2022-10-19T01:46:58;7.60;;;4.60;;
30215;SDS011;17028;47.642;8.070;2022-10-19T01:52:05;9.13;;;5.20;;
30215;SDS011;17028;47.642;8.070;2022-10-19T01:57:10;7.60;;;4.70;;
30215;SDS011;17028;47.642;8.070;2022-10-19T02:02:12;7.40;;;4.88;;
30215;SDS011;17028;47.642;8.070;2022-10-19T02:07:15;7.15;;;4.88;;
30215;SDS011;17028;47.642;8.070;2022-10-19T02:12:16;7.57;;;4.72;;
30215;SDS011;17028;47.642;8.070;2022-10-19T02:17:20;6.20;;;4.72;;
30215;SDS011;17028;47.642;8.070;2022-10-19T02:22:25;7.40;;;4.97;;
30215;SDS011;17028;47.642;8.070;2022-10-19T02:27:26;10.15;;;5.63;;
30215;SDS011;17028;47.642;8.070;2022-10-19T02:32:27;6.72;;;5.13;;
30215;SDS011;17028;47.642;8.070;2022-10-19T02:37:28;8.50;;;5.10;;
30215;SDS011;17028;47.642;8.070;2022-10-19T02:42:48;7.47;;;5.10;;
30215;SDS011;17028;47.642;8.070;2022-10-19T02:48:07;6.75;;;4.93;;
30215;SDS011;17028;47.642;8.070;2022-10-19T02:58:14;8.02;;;5.72;;
30215;SDS011;17028;47.642;8.070;2022-10-19T03:03:15;8.02;;;5.10;;
30215;SDS011;17028;47.642;8.070;2022-10-19T03:08:16;8.80;;;6.10;;
30215;SDS011;17028;47.642;8.070;2022-10-19T03:13:17;8.13;;;5.07;;
30215;SDS011;17028;47.642;8.070;2022-10-19T03:18:18;11.75;;;6.05;;
30215;SDS011;17028;47.642;8.070;2022-10-19T03:23:19;7.80;;;5.65;;
30215;SDS011;17028;47.642;8.070;2022-10-19T03:28:20;9.75;;;5.72;;
30215;SDS011;17028;47.642;8.070;2022-10-19T03:33:22;7.93;;;5.90;;
30215;SDS011;17028;47.642;8.070;2022-10-19T03:38:23;10.02;;;5.63;;
30215;SDS011;17028;47.642;8.070;2022-10-19T03:43:24;6.72;;;5.28;;
30215;SDS011;17028;47.642;8.070;2022-10-19T03:48:25;9.02;;;5.18;;
30215;SDS011;17028;47.642;8.070;2022-10-19T03:53:27;8.10;;;5.57;;
30215;SDS011;17028;47.642;8.070;2022-10-19T03:58:31;8.25;;;5.03;;
30215;SDS011;17028;47.642;8.070;2022-10-19T04:03:34;8.07;;;5.05;;
30215;SDS011;17028;47.642;8.070;2022-10-19T04:08:35;6.95;;;4.63;;
30215;SDS011;17028;47.642;8.070;2022-10-19T04:13:37;8.60;;;4.70;;
30215;SDS011;17028;47.642;8.070;2022-10-19T04:18:38;6.13;;;4.43;;
30215;SDS011;17028;47.642;8.070;2022-10-19T04:23:39;5.60;;;3.67;;
30215;SDS011;17028;47.642;8.070;2022-10-19T04:28:40;5.35;;;3.88;;
30215;SDS011;17028;47.642;8.070;2022-10-19T04:33:41;4.50;;;3.65;;
30215;SDS011;17028;47.642;8.070;2022-10-19T04:38:42;4.47;;;3.33;;
30215;SDS011;17028;47.642;8.070;2022-10-19T04:43:43;5.22;;;3.72;;
30215;SDS011;17028;47.642;8.070;2022-10-19T04:48:46;7.25;;;4.40;;
30215;SDS011;17028;47.642;8.070;2022-10-19T04:53:47;6.18;;;4.40;;
30215;SDS011;17028;47.642;8.070;2022-10-19T04:58:49;6.85;;;3.90;;
30215;SDS011;17028;47.642;8.070;2022-10-19T05:03:59;5.28;;;4.13;;
30215;SDS011;17028;47.642;8.070;2022-10-19T05:09:02;5.55;;;4.18;;
30215;SDS011;17028;47.642;8.070;2022-10-19T05:14:03;7.53;;;4.53;;
30215;SDS011;17028;47.642;8.070;2022-10-19T05:19:04;6.43;;;4.60;;
30215;SDS011;17028;47.642;8.070;2022-10-19T05:24:05;5.60;;;4.20;;
30215;SDS011;17028;47.642;8.070;2022-10-19T05:29:09;6.00;;;3.90;;
30215;SDS011;17028;47.642;8.070;2022-10-19T05:34:11;5.20;;;3.65;;
30215;SDS011;17028;47.642;8.070;2022-10-19T05:39:13;5.22;;;3.25;;
30215;SDS011;17028;47.642;8.070;2022-10-19T05:44:16;4.57;;;3.25;;
30215;SDS011;17028;47.642;8.070;2022-10-19T05:49:20;4.72;;;3.25;;
30215;SDS011;17028;47.642;8.070;2022-10-19T05:54:21;5.53;;;3.55;;
30215;SDS011;17028;47.642;8.070;2022-10-19T05:59:23;4.43;;;3.33;;
30215;SDS011;17028;47.642;8.070;2022-10-19T06:04:24;3.75;;;2.40;;
30215;SDS011;17028;47.642;8.070;2022-10-19T06:09:25;4.18;;;3.00;;
30215;SDS011;17028;47.642;8.070;2022-10-19T06:14:26;4.60;;;3.10;;
30215;SDS011;17028;47.642;8.070;2022-10-19T06:19:27;6.15;;;3.00;;
30215;SDS011;17028;47.642;8.070;2022-10-19T06:24:28;4.45;;;3.20;;
30215;SDS011;17028;47.642;8.070;2022-10-19T06:29:29;3.67;;;2.60;;
30215;SDS011;17028;47.642;8.070;2022-10-19T06:34:30;3.60;;;2.50;;
30215;SDS011;17028;47.642;8.070;2022-10-19T06:39:31;3.25;;;2.38;;
30215;SDS011;17028;47.642;8.070;2022-10-19T06:44:32;3.22;;;2.33;;
30215;SDS011;17028;47.642;8.070;2022-10-19T06:49:33;2.88;;;1.95;;
30215;SDS011;17028;47.642;8.070;2022-10-19T06:54:35;3.25;;;2.20;;
30215;SDS011;17028;47.642;8.070;2022-10-19T06:59:36;2.20;;;1.70;;
30215;SDS011;17028;47.642;8.070;2022-10-19T07:04:37;3.30;;;2.20;;
30215;SDS011;17028;47.642;8.070;2022-10-19T07:09:38;3.83;;;2.40;;
30215;SDS011;17028;47.642;8.070;2022-10-19T07:14:39;2.70;;;2.00;;
30215;SDS011;17028;47.642;8.070;2022-10-19T07:19:40;3.40;;;2.30;;
30215;SDS011;17028;47.642;8.070;2022-10-19T07:24:41;5.57;;;3.15;;
30215;SDS011;17028;47.642;8.070;2022-10-19T07:29:42;4.43;;;3.38;;
30215;SDS011;17028;47.642;8.070;2022-10-19T07:34:43;5.68;;;3.90;;
30215;SDS011;17028;47.642;8.070;2022-10-19T07:39:44;4.57;;;3.38;;
30215;SDS011;17028;47.642;8.070;2022-10-19T07:44:45;4.30;;;2.85;;
30215;SDS011;17028;47.642;8.070;2022-10-19T07:49:46;7.28;;;3.58;;
30215;SDS011;17028;47.642;8.070;2022-10-19T07:54:47;5.55;;;3.33;;
30215;SDS011;17028;47.642;8.070;2022-10-19T07:59:49;5.90;;;3.25;;
30215;SDS011;17028;47.642;8.070;2022-10-19T08:04:50;6.78;;;3.25;;
30215;SDS011;17028;47.642;8.070;2022-10-19T08:09:51;5.93;;;3.70;;
30215;SDS011;17028;47.642;8.070;2022-10-19T08:14:52;7.88;;;4.10;;
30215;SDS011;17028;47.642;8.070;2022-10-19T08:19:53;8.88;;;4.93;;
30215;SDS011;17028;47.642;8.070;2022-10-19T08:24:54;7.82;;;5.20;;
30215;SDS011;17028;47.642;8.070;2022-10-19T08:29:55;10.88;;;5.90;;
30215;SDS011;17028;47.642;8.070;2022-10-19T08:34:56;8.20;;;5.90;;
30215;SDS011;17028;47.642;8.070;2022-10-19T08:39:57;7.80;;;5.75;;
30215;SDS011;17028;47.642;8.070;2022-10-19T08:49:59;6.53;;;4.90;;
30215;SDS011;17028;47.642;8.070;2022-10-19T08:55:03;8.15;;;6.05;;
30215;SDS011;17028;47.642;8.070;2022-10-19T09:00:33;8.73;;;6.57;;
30215;SDS011;17028;47.642;8.070;2022-10-19T09:05:41;7.80;;;5.95;;
30215;SDS011;17028;47.642;8.070;2022-10-19T09:10:48;7.93;;;6.38;;
30215;SDS011;17028;47.642;8.070;2022-10-19T09:15:51;9.75;;;5.97;;
30215;SDS011;17028;47.642;8.070;2022-10-19T09:26:11;12.07;;;6.85;;
30215;SDS011;17028;47.642;8.070;2022-10-19T09:36:41;9.75;;;6.43;;
30215;SDS011;17028;47.642;8.070;2022-10-19T09:41:46;7.78;;;6.47;;
30215;SDS011;17028;47.642;8.070;2022-10-19T09:52:01;8.77;;;6.47;;
30215;SDS011;17028;47.642;8.070;2022-10-19T09:57:02;9.75;;;6.60;;
30215;SDS011;17028;47.642;8.070;2022-10-19T10:07:05;7.05;;;5.75;;
30215;SDS011;17028;47.642;8.070;2022-10-19T10:12:14;9.13;;;6.25;;
30215;SDS011;17028;47.642;8.070;2022-10-19T10:17:27;9.60;;;6.18;;
30215;SDS011;17028;47.642;8.070;2022-10-19T10:22:31;9.13;;;6.55;;
30215;SDS011;17028;47.642;8.070;2022-10-19T10:27:35;9.38;;;5.75;;
30215;SDS011;17028;47.642;8.070;2022-10-19T10:32:46;8.45;;;5.53;;
30215;SDS011;17028;47.642;8.070;2022-10-19T10:37:49;10.88;;;6.70;;
30215;SDS011;17028;47.642;8.070;2022-10-19T10:42:51;9.07;;;6.60;;
30215;SDS011;17028;47.642;8.070;2022-10-19T10:47:54;9.98;;;6.78;;
30215;SDS011;17028;47.642;8.070;2022-10-19T10:52:58;10.30;;;6.20;;
30215;SDS011;17028;47.642;8.070;2022-10-19T11:03:14;11.13;;;6.43;;
30215;SDS011;17028;47.642;8.070;2022-10-19T11:08:32;6.75;;;5.35;;
30215;SDS011;17028;47.642;8.070;2022-10-19T11:13:50;9.68;;;6.20;;
30215;SDS011;17028;47.642;8.070;2022-10-19T11:18:59;10.77;;;6.95;;
30215;SDS011;17028;47.642;8.070;2022-10-19T11:24:16;11.07;;;7.43;;
30215;SDS011;17028;47.642;8.070;2022-10-19T11:34:48;8.40;;;6.55;;
30215;SDS011;17028;47.642;8.070;2022-10-19T11:50:24;11.15;;;8.27;;
30215;SDS011;17028;47.642;8.070;2022-10-19T12:06:39;12.05;;;8.23;;
30215;SDS011;17028;47.642;8.070;2022-10-19T12:17:31;10.95;;;7.30;;
30215;SDS011;17028;47.642;8.070;2022-10-19T12:22:35;8.50;;;6.70;;
30215;SDS011;17028;47.642;8.070;2022-10-19T12:27:37;10.27;;;7.38;;
30215;SDS011;17028;47.642;8.070;2022-10-19T12:32:51;11.05;;;6.97;;
30215;SDS011;17028;47.642;8.070;2022-10-19T12:38:02;8.95;;;7.50;;
30215;SDS011;17028;47.642;8.070;2022-10-19T12:43:09;10.10;;;7.55;;
30215;SDS011;17028;47.642;8.070;2022-10-19T12:48:24;12.40;;;8.38;;
30215;SDS011;17028;47.642;8.070;2022-10-19T12:53:28;11.50;;;8.00;;
30215;SDS011;17028;47.642;8.070;2022-10-19T12:58:44;9.95;;;7.60;;
30215;SDS011;17028;47.642;8.070;2022-10-19T13:03:45;10.10;;;7.07;;
30215;SDS011;17028;47.642;8.070;2022-10-19T13:13:53;12.20;;;8.00;;
30215;SDS011;17028;47.642;8.070;2022-10-19T13:29:24;10.70;;;8.30;;
30215;SDS011;17028;47.642;8.070;2022-10-19T13:34:28;9.70;;;6.68;;
30215;SDS011;17028;47.642;8.070;2022-10-19T13:39:29;12.30;;;8.07;;
30215;SDS011;17028;47.642;8.070;2022-10-19T13:44:30;9.30;;;7.60;;
30215;SDS011;17028;47.642;8.070;2022-10-19T13:50:20;9.85;;;6.53;;
30215;SDS011;17028;47.642;8.070;2022-10-19T13:55:21;10.45;;;6.55;;
30215;SDS011;17028;47.642;8.070;2022-10-19T14:10:58;10.65;;;6.55;;
30215;SDS011;17028;47.642;8.070;2022-10-19T14:16:02;9.95;;;6.00;;
30215;SDS011;17028;47.642;8.070;2022-10-19T14:21:04;8.70;;;5.90;;
30215;SDS011;17028;47.642;8.070;2022-10-19T14:26:19;8.35;;;5.70;;
30215;SDS011;17028;47.642;8.070;2022-10-19T14:31:23;9.98;;;6.85;;
30215;SDS011;17028;47.642;8.070;2022-10-19T14:36:30;8.98;;;6.22;;
30215;SDS011;17028;47.642;8.070;2022-10-19T14:41:35;8.27;;;5.80;;
30215;SDS011;17028;47.642;8.070;2022-10-19T14:46:36;6.70;;;5.60;;
30215;SDS011;17028;47.642;8.070;2022-10-19T14:51:48;7.47;;;5.85;;
30215;SDS011;17028;47.642;8.070;2022-10-19T14:56:55;8.80;;;5.57;;
30215;SDS011;17028;47.642;8.070;2022-10-19T15:02:00;7.72;;;5.82;;
30215;SDS011;17028;47.642;8.070;2022-10-19T15:07:51;6.45;;;5.18;;
30215;SDS011;17028;47.642;8.070;2022-10-19T15:12:37;8.48;;;6.20;;
30215;SDS011;17028;47.642;8.070;2022-10-19T15:17:54;7.37;;;5.87;;
30215;SDS011;17028;47.642;8.070;2022-10-19T15:23:27;11.50;;;6.05;;
30215;SDS011;17028;47.642;8.070;2022-10-19T15:38:38;9.80;;;7.30;;
30215;SDS011;17028;47.642;8.070;2022-10-19T15:43:47;9.05;;;6.40;;
30215;SDS011;17028;47.642;8.070;2022-10-19T15:53:53;8.10;;;6.03;;
30215;SDS011;17028;47.642;8.070;2022-10-19T15:58:56;6.97;;;5.55;;
30215;SDS011;17028;47.642;8.070;2022-10-19T16:03:59;7.15;;;5.82;;
30215;SDS011;17028;47.642;8.070;2022-10-19T16:09:00;8.48;;;5.30;;
30215;SDS011;17028;47.642;8.070;2022-10-19T16:14:01;6.95;;;4.90;;
30215;SDS011;17028;47.642;8.070;2022-10-19T16:19:03;5.05;;;4.15;;
30215;SDS011;17028;47.642;8.070;2022-10-19T16:24:04;5.40;;;4.40;;
30215;SDS011;17028;47.642;8.070;2022-10-19T16:29:05;4.30;;;3.25;;
30215;SDS011;17028;47.642;8.070;2022-10-19T16:34:06;4.05;;;3.17;;
30215;SDS011;17028;47.642;8.070;2022-10-19T16:39:07;4.72;;;3.22;;
30215;SDS011;17028;47.642;8.070;2022-10-19T16:44:09;5.20;;;3.30;;
30215;SDS011;17028;47.642;8.070;2022-10-19T16:49:11;4.97;;;3.15;;
30215;SDS011;17028;47.642;8.070;2022-10-19T16:54:13;4.95;;;2.97;;
30215;SDS011;17028;47.642;8.070;2022-10-19T16:59:16;4.20;;;2.70;;
30215;SDS011;17028;47.642;8.070;2022-10-19T17:04:17;3.40;;;2.58;;
30215;SDS011;17028;47.642;8.070;2022-10-19T17:09:18;3.65;;;2.58;;
30215;SDS011;17028;47.642;8.070;2022-10-19T17:14:19;3.28;;;2.30;;
30215;SDS011;17028;47.642;8.070;2022-10-19T17:19:20;2.58;;;1.80;;
30215;SDS011;17028;47.642;8.070;2022-10-19T17:24:22;2.22;;;1.40;;
30215;SDS011;17028;47.642;8.070;2022-10-19T17:29:23;1.88;;;1.40;;
30215;SDS011;17028;47.642;8.070;2022-10-19T17:34:24;2.67;;;1.88;;
30215;SDS011;17028;47.642;8.070;2022-10-19T17:39:26;2.25;;;1.70;;
30215;SDS011;17028;47.642;8.070;2022-10-19T17:44:28;2.83;;;2.00;;
30215;SDS011;17028;47.642;8.070;2022-10-19T17:49:30;2.90;;;2.13;;
30215;SDS011;17028;47.642;8.070;2022-10-19T17:54:31;2.80;;;2.00;;
30215;SDS011;17028;47.642;8.070;2022-10-19T17:59:32;3.30;;;2.28;;
30215;SDS011;17028;47.642;8.070;2022-10-19T18:04:33;4.05;;;2.88;;
30215;SDS011;17028;47.642;8.070;2022-10-19T18:09:34;6.35;;;3.90;;
30215;SDS011;17028;47.642;8.070;2022-10-19T18:14:35;6.22;;;3.60;;
30215;SDS011;17028;47.642;8.070;2022-10-19T18:19:36;6.13;;;4.10;;
30215;SDS011;17028;47.642;8.070;2022-10-19T18:24:37;9.10;;;4.82;;
30215;SDS011;17028;47.642;8.070;2022-10-19T18:29:38;6.43;;;4.90;;
30215;SDS011;17028;47.642;8.070;2022-10-19T18:34:39;8.23;;;5.30;;
30215;SDS011;17028;47.642;8.070;2022-10-19T18:39:41;7.07;;;4.88;;
30215;SDS011;17028;47.642;8.070;2022-10-19T18:44:42;7.63;;;5.38;;
30215;SDS011;17028;47.642;8.070;2022-10-19T18:49:43;6.90;;;5.25;;
30215;SDS011;17028;47.642;8.070;2022-10-19T18:54:44;7.63;;;5.78;;
30215;SDS011;17028;47.642;8.070;2022-10-19T18:59:45;13.10;;;8.65;;
30215;SDS011;17028;47.642;8.070;2022-10-19T19:04:47;13.85;;;7.53;;
30215;SDS011;17028;47.642;8.070;2022-10-19T19:09:48;9.73;;;6.90;;
30215;SDS011;17028;47.642;8.070;2022-10-19T19:14:49;8.93;;;6.57;;
30215;SDS011;17028;47.642;8.070;2022-10-19T19:19:50;9.85;;;7.45;;
30215;SDS011;17028;47.642;8.070;2022-10-19T19:24:52;10.63;;;7.18;;
30215;SDS011;17028;47.642;8.070;2022-10-19T19:29:54;8.63;;;7.28;;
30215;SDS011;17028;47.642;8.070;2022-10-19T19:34:56;9.82;;;7.72;;
30215;SDS011;17028;47.642;8.070;2022-10-19T19:39:57;8.23;;;6.88;;
30215;SDS011;17028;47.642;8.070;2022-10-19T19:44:58;9.52;;;7.40;;
30215;SDS011;17028;47.642;8.070;2022-10-19T19:49:59;9.60;;;7.63;;
30215;SDS011;17028;47.642;8.070;2022-10-19T19:55:00;9.40;;;7.47;;
30215;SDS011;17028;47.642;8.070;2022-10-19T20:00:02;9.77;;;7.50;;
30215;SDS011;17028;47.642;8.070;2022-10-19T20:05:12;9.60;;;7.60;;
30215;SDS011;17028;47.642;8.070;2022-10-19T20:10:13;9.02;;;7.63;;
30215;SDS011;17028;47.642;8.070;2022-10-19T20:15:17;10.15;;;8.07;;
30215;SDS011;17028;47.642;8.070;2022-10-19T20:20:18;10.43;;;8.18;;
30215;SDS011;17028;47.642;8.070;2022-10-19T20:25:19;8.60;;;6.93;;
30215;SDS011;17028;47.642;8.070;2022-10-19T20:30:20;9.50;;;7.78;;
30215;SDS011;17028;47.642;8.070;2022-10-19T20:35:21;10.90;;;8.38;;
30215;SDS011;17028;47.642;8.070;2022-10-19T20:40:22;10.27;;;8.00;;
30215;SDS011;17028;47.642;8.070;2022-10-19T20:45:23;10.45;;;8.45;;
30215;SDS011;17028;47.642;8.070;2022-10-19T20:50:24;10.95;;;9.30;;
30215;SDS011;17028;47.642;8.070;2022-10-19T20:55:25;12.15;;;8.50;;
30215;SDS011;17028;47.642;8.070;2022-10-19T21:00:26;11.90;;;9.52;;
30215;SDS011;17028;47.642;8.070;2022-10-19T21:05:27;11.30;;;9.13;;
30215;SDS011;17028;47.642;8.070;2022-10-19T21:10:28;10.30;;;8.50;;
30215;SDS011;17028;47.642;8.070;2022-10-19T21:15:29;13.95;;;9.55;;
30215;SDS011;17028;47.642;8.070;2022-10-19T21:20:31;14.55;;;9.68;;
30215;SDS011;17028;47.642;8.070;2022-10-19T21:25:32;10.55;;;8.93;;
30215;SDS011;17028;47.642;8.070;2022-10-19T21:30:34;12.07;;;9.55;;
30215;SDS011;17028;47.642;8.070;2022-10-19T21:35:35;12.00;;;9.27;;
30215;SDS011;17028;47.642;8.070;2022-10-19T21:40:36;9.82;;;8.40;;
30215;SDS011;17028;47.642;8.070;2022-10-19T21:45:37;10.18;;;8.82;;
30215;SDS011;17028;47.642;8.070;2022-10-19T21:50:38;13.77;;;9.13;;
30215;SDS011;17028;47.642;8.070;2022-10-19T21:55:39;12.07;;;9.02;;
30215;SDS011;17028;47.642;8.070;2022-10-19T22:00:41;12.88;;;9.98;;
30215;SDS011;17028;47.642;8.070;2022-10-19T22:05:51;12.23;;;10.10;;
30215;SDS011;17028;47.642;8.070;2022-10-19T22:10:52;10.40;;;9.00;;
30215;SDS011;17028;47.642;8.070;2022-10-19T22:15:53;10.20;;;8.40;;
30215;SDS011;17028;47.642;8.070;2022-10-19T22:20:54;12.45;;;9.77;;
30215;SDS011;17028;47.642;8.070;2022-10-19T22:25:56;10.65;;;8.45;;
30215;SDS011;17028;47.642;8.070;2022-10-19T22:30:57;13.63;;;10.32;;
30215;SDS011;17028;47.642;8.070;2022-10-19T22:35:59;12.30;;;10.02;;
30215;SDS011;17028;47.642;8.070;2022-10-19T22:41:00;14.35;;;11.00;;
30215;SDS011;17028;47.642;8.070;2022-10-19T22:46:02;11.30;;;9.52;;
30215;SDS011;17028;47.642;8.070;2022-10-19T22:51:03;12.60;;;9.73;;
30215;SDS011;17028;47.642;8.070;2022-10-19T22:56:04;10.13;;;8.38;;
30215;SDS011;17028;47.642;8.070;2022-10-19T23:01:09;10.85;;;8.60;;
30215;SDS011;17028;47.642;8.070;2022-10-19T23:06:13;11.20;;;9.23;;
30215;SDS011;17028;47.642;8.070;2022-10-19T23:11:15;11.88;;;9.30;;
30215;SDS011;17028;47.642;8.070;2022-10-19T23:16:16;10.38;;;8.88;;
30215;SDS011;17028;47.642;8.070;2022-10-19T23:21:17;12.10;;;10.00;;
30215;SDS011;17028;47.642;8.070;2022-10-19T23:26:18;12.98;;;10.75;;
30215;SDS011;17028;47.642;8.070;2022-10-19T23:31:21;13.38;;;10.63;;
30215;SDS011;17028;47.642;8.070;2022-10-19T23:36:25;14.10;;;10.80;;
30215;SDS011;17028;47.642;8.070;2022-10-19T23:41:27;12.05;;;9.85;;
30215;SDS011;17028;47.642;8.070;2022-10-19T23:46:28;13.57;;;11.32;;
30215;SDS011;17028;47.642;8.070;2022-10-19T23:51:30;17.60;;;13.00;;
30215;SDS011;17028;47.642;8.070;2022-10-19T23:56:31;12.15;;;10.07;;
